Time;durP1;ratioP1;P1;durP2;ratioP2;P2;SDS_P1;SDS_P2;PMS_P1;PMS_P2;Temp;Humidity;BMP_temperature;BMP_pressure;BME280_temperature;BME280_humidity;BME280_pressure;Samples;Min_cycle;Max_cycle;Signal;HPM_P1;HPM_P2
2021/03/08 00:00:28;;;;;;;8.73;5.23;;;;;;;1.58;64.53;98919.66;1790914;78;21521;-66
2021/03/08 00:02:56;;;;;;;7.20;4.23;;;;;;;1.57;64.58;98923.22;1775603;79;21404;-66
2021/03/08 00:05:23;;;;;;;9.50;6.00;;;;;;;1.56;64.64;98917.04;1780010;78;21080;-65
2021/03/08 00:07:51;;;;;;;7.27;4.67;;;;;;;1.57;64.65;98920.11;1776446;78;21147;-64
2021/03/08 00:10:20;;;;;;;8.23;5.27;;;;;;;1.57;64.74;98917.45;1791516;78;21186;-64
2021/03/08 00:12:48;;;;;;;6.97;4.43;;;;;;;1.58;64.71;98914.36;1790338;78;22299;-64
2021/03/08 00:15:19;;;;;;;7.27;5.43;;;;;;;1.60;64.71;98916.52;1792924;78;21134;-63
2021/03/08 00:17:47;;;;;;;7.87;5.10;;;;;;;1.57;64.74;98910.83;1775467;78;21119;-64
2021/03/08 00:20:17;;;;;;;10.90;5.10;;;;;;;1.59;64.83;98908.14;1789633;78;21071;-64
2021/03/08 00:22:44;;;;;;;7.87;4.87;;;;;;;1.57;64.82;98903.33;1774246;79;21716;-64
2021/03/08 00:25:15;;;;;;;11.60;7.90;;;;;;;1.57;64.87;98902.00;1791256;78;21517;-64
2021/03/08 00:27:43;;;;;;;8.77;6.57;;;;;;;1.57;64.85;98896.69;1792817;78;21752;-64
2021/03/08 00:30:11;;;;;;;9.13;6.13;;;;;;;1.57;64.86;98892.71;1793819;78;21155;-64
2021/03/08 00:32:39;;;;;;;9.83;6.70;;;;;;;1.58;64.95;98892.68;1773614;78;21198;-65
2021/03/08 00:35:08;;;;;;;8.07;5.77;;;;;;;1.59;64.96;98882.95;1787770;78;21115;-64
2021/03/08 00:37:35;;;;;;;7.43;5.93;;;;;;;1.57;65.00;98884.30;1750700;79;22721;-65
2021/03/08 00:40:06;;;;;;;7.30;5.27;;;;;;;1.57;65.03;98878.13;1772482;78;21147;-66
2021/03/08 00:42:33;;;;;;;9.00;4.27;;;;;;;1.58;65.05;98879.41;1794267;78;21123;-65
2021/03/08 00:45:14;;;;;;;6.50;4.40;;;;;;;1.58;65.15;98873.23;1789478;78;21347;-65
2021/03/08 00:47:48;;;;;;;6.30;4.80;;;;;;;1.61;65.20;98874.50;1869690;75;26907;-65
2021/03/08 00:50:20;;;;;;;6.33;4.70;;;;;;;1.54;65.32;98867.13;1778286;78;21040;-63
2021/03/08 00:52:47;;;;;;;5.73;4.57;;;;;;;1.56;65.33;98870.63;1772580;79;22425;-64
2021/03/08 00:55:15;;;;;;;9.40;4.70;;;;;;;1.56;65.35;98870.63;1801009;78;21234;-64
2021/03/08 00:57:53;;;;;;;7.47;5.57;;;;;;;1.56;65.49;98865.31;1669107;84;21078;-63
2021/03/08 01:00:25;;;;;;;9.10;5.17;;;;;;;1.56;65.51;98860.47;1662266;84;21534;-65
2021/03/08 01:02:53;;;;;;;7.37;4.30;;;;;;;1.53;65.55;98865.42;1692947;82;21043;-63
2021/03/08 01:05:24;;;;;;;5.47;4.73;;;;;;;1.53;65.60;98850.83;1695646;82;21265;-64
2021/03/08 01:07:52;;;;;;;6.33;4.80;;;;;;;1.53;65.72;98847.30;1664724;82;21668;-63
2021/03/08 01:10:25;;;;;;;7.77;5.50;;;;;;;1.51;65.77;98846.89;1694967;82;21226;-64
2021/03/08 01:12:53;;;;;;;7.13;4.87;;;;;;;1.51;65.89;98851.32;1696031;82;22248;-64
2021/03/08 01:15:20;;;;;;;8.50;5.60;;;;;;;1.50;65.94;98838.97;1693008;82;21632;-63
2021/03/08 01:17:49;;;;;;;7.33;5.73;;;;;;;1.50;65.96;98839.84;1658761;84;21518;-61
2021/03/08 01:20:18;;;;;;;12.17;7.63;;;;;;;1.50;65.97;98832.34;1694936;82;22264;-63
2021/03/08 01:22:46;;;;;;;13.03;6.33;;;;;;;1.49;66.05;98821.31;1695151;82;21178;-62
2021/03/08 01:25:17;;;;;;;11.97;6.87;;;;;;;1.49;66.02;98816.88;1672993;84;21717;-63
2021/03/08 01:27:45;;;;;;;9.73;6.47;;;;;;;1.48;66.03;98812.93;1692976;82;22236;-63
2021/03/08 01:30:18;;;;;;;6.50;5.27;;;;;;;1.47;66.05;98816.04;1667049;84;21414;-63
2021/03/08 01:32:45;;;;;;;7.53;5.10;;;;;;;1.47;66.13;98827.09;1671550;84;21238;-64
2021/03/08 01:35:13;;;;;;;9.73;5.50;;;;;;;1.47;66.19;98826.64;1690894;82;21198;-64
2021/03/08 01:37:41;;;;;;;7.43;5.57;;;;;;;1.48;66.20;98819.56;1692758;82;22507;-65
2021/03/08 01:40:13;;;;;;;9.97;6.80;;;;;;;1.48;66.24;98822.22;1688557;82;22305;-64
2021/03/08 01:42:41;;;;;;;11.03;8.00;;;;;;;1.47;66.24;98821.34;1709714;81;22987;-64
2021/03/08 01:45:11;;;;;;;11.43;7.80;;;;;;;1.47;66.28;98827.09;1718697;81;21017;-64
2021/03/08 01:47:39;;;;;;;14.03;8.73;;;;;;;1.48;66.21;98827.06;1718262;81;21258;-64
2021/03/08 01:50:12;;;;;;;14.00;8.80;;;;;;;1.50;66.25;98823.92;1718649;81;21208;-64
2021/03/08 01:52:40;;;;;;;9.90;8.00;;;;;;;1.51;66.22;98825.67;1721093;81;21193;-64
2021/03/08 01:55:09;;;;;;;11.70;8.17;;;;;;;1.50;66.17;98825.25;1692128;81;22537;-65
2021/03/08 01:57:36;;;;;;;13.13;7.93;;;;;;;1.49;66.27;98822.18;1731917;80;21154;-64
2021/03/08 02:00:06;;;;;;;11.27;6.33;;;;;;;1.50;66.18;98821.27;1774733;78;21163;-64
2021/03/08 02:02:36;;;;;;;8.27;5.63;;;;;;;1.51;66.24;98827.00;1741757;80;21171;-66
2021/03/08 02:05:06;;;;;;;9.73;7.20;;;;;;;1.53;66.15;98826.09;1737125;80;21222;-65
2021/03/08 02:07:33;;;;;;;13.53;7.57;;;;;;;1.53;66.13;98822.49;1744236;80;22139;-64
2021/03/08 02:10:04;;;;;;;8.90;6.30;;;;;;;1.55;66.11;98821.59;1737375;80;21069;-67
2021/03/08 02:13:04;;;;;;;12.33;6.97;;;;;;;1.57;66.03;98821.09;1707871;82;21227;-66
2021/03/08 02:15:46;;;;;;;13.67;7.70;;;;;;;1.56;66.03;98823.33;1744613;80;21596;-65
2021/03/08 02:19:03;;;;;;;10.63;7.63;;;;;;;1.56;66.02;98818.91;1749182;80;21555;-65
2021/03/08 02:22:13;;;;;;;8.07;6.03;;;;;;;1.57;65.96;98827.73;1749578;80;21592;-64
2021/03/08 02:25:09;;;;;;;7.80;5.30;;;;;;;1.55;65.94;98827.77;1745903;80;21240;-66
2021/03/08 02:28:23;;;;;;;7.93;5.10;;;;;;;1.56;65.96;98812.72;1722514;80;21177;-63
2021/03/08 02:30:51;;;;;;;6.30;4.53;;;;;;;1.55;65.99;98818.94;1748734;80;21224;-64
2021/03/08 02:33:30;;;;;;;6.90;4.93;;;;;;;1.52;66.09;98818.59;1749181;80;21562;-64
2021/03/08 02:36:00;;;;;;;8.90;4.87;;;;;;;1.50;66.08;98810.66;1725204;80;21118;-64
2021/03/08 02:38:30;;;;;;;10.80;5.53;;;;;;;1.51;66.10;98813.73;1721866;80;21828;-66
2021/03/08 02:41:02;;;;;;;7.20;6.00;;;;;;;1.50;66.25;98814.64;1718083;80;21129;-63
2021/03/08 02:43:36;;;;;;;8.47;5.63;;;;;;;1.51;66.24;98812.41;1745004;80;21107;-64
2021/03/08 02:46:06;;;;;;;12.70;7.75;;;;;;;1.50;66.29;98808.47;1744439;80;21178;-62
2021/03/08 02:48:35;;;;;;;10.27;7.63;;;;;;;1.51;66.31;98807.56;1747549;80;21000;-63
2021/03/08 02:51:03;;;;;;;10.73;6.67;;;;;;;1.51;66.32;98801.80;1781428;78;21122;-61
2021/03/08 02:53:32;;;;;;;9.07;6.43;;;;;;;1.51;66.32;98804.91;1776663;78;21485;-64
2021/03/08 02:56:02;;;;;;;9.30;6.50;;;;;;;1.49;66.38;98799.64;1743195;80;21211;-64
2021/03/08 02:58:32;;;;;;;5.40;4.77;;;;;;;1.49;66.43;98798.31;1744768;80;21111;-63
2021/03/08 03:01:01;;;;;;;9.00;5.67;;;;;;;1.51;66.47;98811.08;1781161;78;21281;-63
2021/03/08 03:03:32;;;;;;;9.20;6.37;;;;;;;1.51;66.45;98805.78;1779963;78;21149;-63
2021/03/08 03:05:59;;;;;;;10.63;6.67;;;;;;;1.51;66.43;98799.15;1780701;78;21179;-63
2021/03/08 03:08:27;;;;;;;12.83;6.63;;;;;;;1.52;66.48;98796.05;1776637;78;21118;-59
2021/03/08 03:10:55;;;;;;;9.47;6.23;;;;;;;1.50;66.48;98799.19;1777362;78;21154;-59
2021/03/08 03:13:23;;;;;;;9.33;6.57;;;;;;;1.49;66.64;98798.31;1781915;78;21423;-63
2021/03/08 03:15:51;;;;;;;8.33;6.23;;;;;;;1.49;66.72;98800.09;1781726;78;21098;-63
2021/03/08 03:18:18;;;;;;;9.73;6.63;;;;;;;1.48;66.75;98808.50;1782095;78;21145;-61
2021/03/08 03:20:46;;;;;;;9.13;5.17;;;;;;;1.48;66.95;98805.84;1744463;80;21095;-63
2021/03/08 03:23:13;;;;;;;8.50;5.87;;;;;;;1.47;67.18;98805.88;1781561;78;21135;-62
2021/03/08 03:25:41;;;;;;;7.53;5.20;;;;;;;1.47;67.23;98815.16;1783695;78;20992;-61
2021/03/08 03:28:08;;;;;;;9.67;6.40;;;;;;;1.44;67.42;98810.84;1780758;78;21154;-62
2021/03/08 03:30:35;;;;;;;10.20;6.23;;;;;;;1.42;67.86;98807.80;1777815;78;21142;-59
2021/03/08 03:33:03;;;;;;;9.10;6.40;;;;;;;1.40;68.28;98809.61;1778834;78;21189;-61
2021/03/08 03:35:30;;;;;;;8.93;6.47;;;;;;;1.36;68.60;98810.14;1777716;78;21424;-60
2021/03/08 03:37:57;;;;;;;9.07;6.53;;;;;;;1.35;68.91;98806.23;1780776;78;21243;-62
2021/03/08 03:40:24;;;;;;;8.80;6.33;;;;;;;1.33;69.09;98813.34;1780486;78;21728;-62
2021/03/08 03:42:52;;;;;;;9.40;6.40;;;;;;;1.29;69.13;98812.99;1777648;78;21225;-58
2021/03/08 03:45:21;;;;;;;10.43;7.03;;;;;;;1.28;69.29;98808.59;1779521;78;21171;-59
2021/03/08 03:47:49;;;;;;;9.37;6.03;;;;;;;1.29;69.29;98810.34;1777700;78;21528;-61
2021/03/08 03:50:20;;;;;;;11.93;6.50;;;;;;;1.28;69.27;98812.57;1779219;78;21614;-58
2021/03/08 03:52:47;;;;;;;11.43;7.13;;;;;;;1.27;69.21;98810.41;1780164;78;21302;-62
2021/03/08 03:55:17;;;;;;;10.83;5.87;;;;;;;1.26;69.21;98809.98;1778031;78;21157;-60
2021/03/08 03:58:23;;;;;;;17.47;8.50;;;;;;;1.25;69.14;98812.67;1780414;78;21172;-58
2021/03/08 04:01:06;;;;;;;20.23;8.35;;;;;;;1.25;69.09;98804.72;1759216;78;21121;-63
2021/03/08 04:03:45;;;;;;;18.62;7.92;;;;;;;1.25;69.02;98806.05;1780472;78;21269;-64
2021/03/08 04:06:12;;;;;;;17.37;8.77;;;;;;;1.23;68.96;98798.58;1780169;78;21177;-62
2021/03/08 04:08:43;;;;;;;12.97;6.63;;;;;;;1.22;68.88;98799.48;1774474;78;21172;-59
2021/03/08 04:11:10;;;;;;;11.10;7.07;;;;;;;1.22;68.85;98799.48;1776872;78;21174;-62
2021/03/08 04:13:37;;;;;;;10.97;7.23;;;;;;;1.21;68.91;98795.96;1775235;78;21173;-64
2021/03/08 04:16:07;;;;;;;12.50;7.43;;;;;;;1.21;68.94;98798.61;1776489;78;21560;-58
2021/03/08 04:18:34;;;;;;;12.90;7.73;;;;;;;1.19;69.01;98802.23;1779291;78;21575;-63
2021/03/08 04:21:02;;;;;;;8.83;6.00;;;;;;;1.15;69.18;98805.41;1778733;78;21145;-58
2021/03/08 04:23:29;;;;;;;9.40;5.97;;;;;;;1.13;69.37;98796.16;1775713;78;21604;-59
2021/03/08 04:25:56;;;;;;;9.83;5.77;;;;;;;1.13;69.61;98803.24;1779003;78;21771;-59
2021/03/08 04:28:23;;;;;;;12.87;6.53;;;;;;;1.13;69.85;98801.47;1780843;78;22305;-59
2021/03/08 04:30:50;;;;;;;10.63;7.30;;;;;;;1.13;70.06;98800.14;1775193;78;21977;-61
2021/03/08 04:33:18;;;;;;;8.63;5.93;;;;;;;1.12;70.27;98800.17;1779399;78;21609;-63
2021/03/08 04:35:48;;;;;;;8.47;6.20;;;;;;;1.12;70.43;98808.12;1778054;78;21212;-58
2021/03/08 04:38:15;;;;;;;10.40;7.17;;;;;;;1.11;70.76;98811.67;1724491;78;21197;-59
2021/03/08 04:40:44;;;;;;;10.17;7.33;;;;;;;1.10;70.92;98808.19;1778215;78;21436;-60
2021/03/08 04:43:11;;;;;;;8.57;5.97;;;;;;;1.11;71.17;98811.67;1743777;80;22012;-60
2021/03/08 04:45:40;;;;;;;10.07;7.40;;;;;;;1.10;71.33;98807.31;1777929;78;21110;-63
2021/03/08 04:48:12;;;;;;;12.07;6.80;;;;;;;1.11;71.46;98810.36;1751142;78;21193;-63
2021/03/08 04:50:40;;;;;;;10.53;6.63;;;;;;;1.11;71.68;98809.03;1775889;78;21169;-60
2021/03/08 04:53:07;;;;;;;10.07;7.20;;;;;;;1.10;71.82;98816.59;1778918;78;21209;-62
2021/03/08 04:55:35;;;;;;;10.63;6.77;;;;;;;1.09;71.90;98806.89;1778045;78;21529;-59
2021/03/08 04:58:02;;;;;;;9.67;6.63;;;;;;;1.09;71.93;98813.07;1776024;78;21158;-59
2021/03/08 05:00:29;;;;;;;8.10;5.27;;;;;;;1.11;72.03;98815.66;1723027;79;21157;-58
2021/03/08 05:02:58;;;;;;;9.13;5.83;;;;;;;1.11;72.11;98809.03;1782616;78;21165;-60
2021/03/08 05:05:26;;;;;;;8.77;6.67;;;;;;;1.10;72.07;98809.52;1784058;79;21248;-59
2021/03/08 05:07:57;;;;;;;7.27;5.33;;;;;;;1.12;72.19;98813.42;1778307;78;21183;-60
2021/03/08 05:10:26;;;;;;;7.53;6.50;;;;;;;1.12;72.20;98822.70;1778021;79;21583;-61
2021/03/08 05:12:54;;;;;;;8.13;6.17;;;;;;;1.12;72.17;98811.64;1777838;79;21150;-60
2021/03/08 05:15:26;;;;;;;9.57;6.27;;;;;;;1.13;72.27;98817.82;1775479;78;21169;-59
2021/03/08 05:17:56;;;;;;;9.33;6.50;;;;;;;1.12;72.26;98817.40;1773993;79;21205;-63
2021/03/08 05:20:24;;;;;;;8.50;6.07;;;;;;;1.15;72.33;98818.66;1780720;79;21161;-63
2021/03/08 05:22:54;;;;;;;11.97;7.23;;;;;;;1.19;72.33;98818.14;1777506;79;21182;-61
2021/03/08 05:25:22;;;;;;;9.33;6.50;;;;;;;1.20;72.37;98813.23;1778180;78;21142;-60
2021/03/08 05:27:49;;;;;;;8.93;6.00;;;;;;;1.21;72.37;98822.47;1777772;79;21184;-60
2021/03/08 05:30:18;;;;;;;9.17;5.93;;;;;;;1.21;72.37;98823.80;1774634;78;21561;-62
2021/03/08 05:33:18;;;;;;;15.60;7.43;;;;;;;1.21;72.41;98827.77;1777850;79;21506;-64
2021/03/08 05:35:49;;;;;;;10.77;7.10;;;;;;;1.22;72.46;98836.14;1717379;81;21593;-60
2021/03/08 05:38:16;;;;;;;8.50;6.43;;;;;;;1.22;72.45;98833.49;1746643;80;21110;-61
2021/03/08 05:40:56;;;;;;;9.97;6.83;;;;;;;1.22;72.45;98829.97;1747169;80;21206;-60
2021/03/08 05:43:26;;;;;;;9.97;6.73;;;;;;;1.23;72.45;98833.04;1710407;81;21229;-62
2021/03/08 05:46:04;;;;;;;10.10;6.60;;;;;;;1.23;72.50;98838.34;1718189;81;21206;-61
2021/03/08 05:49:06;;;;;;;8.80;5.53;;;;;;;1.23;72.60;98832.59;1719807;81;21192;-59
2021/03/08 05:52:14;;;;;;;8.50;5.23;;;;;;;1.21;72.68;98827.77;1717223;81;21227;-60
2021/03/08 05:55:24;;;;;;;9.07;6.23;;;;;;;1.21;72.89;98841.48;1715824;81;21202;-62
2021/03/08 05:58:41;;;;;;;7.10;5.97;;;;;;;1.20;72.92;98856.97;1714859;81;21380;-61
2021/03/08 06:01:35;;;;;;;7.77;6.00;;;;;;;1.18;73.03;98858.36;1639288;85;21275;-60
2021/03/08 06:04:29;;;;;;;7.93;5.10;;;;;;;1.19;73.27;98877.33;1635890;85;21232;-61
2021/03/08 06:07:28;;;;;;;4.23;2.40;;;;;;;1.18;73.20;98877.36;1696225;81;21196;-64
2021/03/08 06:10:04;;;;;;;2.90;2.00;;;;;;;1.14;72.59;98891.13;1719923;81;21133;-62
2021/03/08 06:12:37;;;;;;;4.03;1.57;;;;;;;1.07;71.95;98894.84;1718313;81;21378;-61
2021/03/08 06:15:10;;;;;;;1.50;0.90;;;;;;;0.99;71.44;98899.00;1723268;81;21150;-63
2021/03/08 06:17:38;;;;;;;1.60;0.90;;;;;;;0.94;71.12;98903.52;1723050;81;21146;-64
2021/03/08 06:20:07;;;;;;;2.60;0.60;;;;;;;0.92;70.60;98919.05;1719036;81;21106;-60
2021/03/08 06:22:35;;;;;;;1.47;0.60;;;;;;;0.89;70.12;98926.61;1699462;82;21115;-61
2021/03/08 06:25:05;;;;;;;1.80;0.50;;;;;;;0.88;69.58;98918.69;1723380;81;21126;-59
2021/03/08 06:27:32;;;;;;;2.17;0.50;;;;;;;0.85;69.28;98927.57;1714534;81;21137;-60
2021/03/08 06:30:00;;;;;;;0.70;0.40;;;;;;;0.81;69.02;98925.91;1721458;81;21454;-60
2021/03/08 06:32:27;;;;;;;1.57;0.47;;;;;;;0.80;68.77;98930.78;1719191;81;21577;-61
2021/03/08 06:34:55;;;;;;;0.60;0.30;;;;;;;0.80;68.72;98933.44;1701318;82;21239;-64
2021/03/08 06:37:25;;;;;;;1.10;0.33;;;;;;;0.78;68.21;98929.06;1701720;82;21298;-59
2021/03/08 06:39:52;;;;;;;0.80;0.20;;;;;;;0.78;67.84;98934.36;1695608;82;21597;-63
2021/03/08 06:42:20;;;;;;;0.73;0.30;;;;;;;0.75;66.79;98944.59;1673159;82;21182;-63
2021/03/08 06:44:48;;;;;;;1.00;0.40;;;;;;;0.70;66.40;98935.86;1731996;81;21524;-62
2021/03/08 06:47:16;;;;;;;2.37;0.40;;;;;;;0.68;65.69;98933.23;1714875;81;21147;-59
2021/03/08 06:49:43;;;;;;;0.70;0.30;;;;;;;0.66;65.27;98948.77;1720105;81;21208;-61
2021/03/08 06:52:12;;;;;;;3.60;0.40;;;;;;;0.67;65.29;98949.19;1718317;81;21214;-64
2021/03/08 06:54:42;;;;;;;0.97;0.30;;;;;;;0.69;64.97;98950.00;1719400;81;22234;-60
2021/03/08 06:57:30;;;;;;;1.33;0.20;;;;;;;0.67;64.08;98942.56;1722489;81;21194;-63
2021/03/08 07:00:00;;;;;;;0.50;0.20;;;;;;;0.66;63.75;98948.31;1719478;81;21221;-60
2021/03/08 07:02:41;;;;;;;0.90;0.33;;;;;;;0.67;63.83;98944.77;1719353;81;21338;-62
2021/03/08 07:05:15;;;;;;;0.80;0.30;;;;;;;0.71;64.03;98945.55;1729755;81;21215;-60
2021/03/08 07:08:00;;;;;;;1.10;0.30;;;;;;;0.74;63.83;98948.14;1711657;81;21199;-62
2021/03/08 07:10:36;;;;;;;0.50;0.30;;;;;;;0.72;63.56;98953.92;1730522;81;22056;-59
2021/03/08 07:13:06;;;;;;;2.27;0.30;;;;;;;0.70;63.20;98964.55;1725331;81;21177;-65
2021/03/08 07:15:58;;;;;;;0.90;0.30;;;;;;;0.71;63.06;98953.05;1714609;81;23047;-64
2021/03/08 07:18:26;;;;;;;2.83;0.40;;;;;;;0.73;62.68;98954.34;1717790;81;21111;-60
2021/03/08 07:20:54;;;;;;;0.40;0.27;;;;;;;0.74;62.14;98955.64;1687807;82;21030;-63
2021/03/08 07:23:25;;;;;;;0.70;0.27;;;;;;;0.70;61.52;98955.27;1723650;81;21546;-59
2021/03/08 07:26:06;;;;;;;0.73;0.30;;;;;;;0.70;61.84;98953.08;1715483;81;21703;-59
2021/03/08 07:28:33;;;;;;;0.80;0.20;;;;;;;0.73;62.23;98945.95;1715595;81;21236;-61
2021/03/08 07:31:00;;;;;;;0.73;0.20;;;;;;;0.83;61.93;98960.32;1719500;81;21218;-65
2021/03/08 07:33:30;;;;;;;0.50;0.20;;;;;;;0.85;61.73;98951.41;1716352;81;21119;-62
2021/03/08 07:35:57;;;;;;;0.50;0.20;;;;;;;0.90;61.76;98957.95;1711824;81;21194;-63
2021/03/08 07:38:31;;;;;;;1.33;0.30;;;;;;;0.92;61.37;98954.38;1718593;82;21574;-58
2021/03/08 07:41:15;;;;;;;0.42;0.20;;;;;;;0.92;61.02;98949.08;1716559;81;21217;-58
2021/03/08 07:43:45;;;;;;;0.60;0.20;;;;;;;0.93;61.19;98952.14;1716743;82;21384;-60
2021/03/08 07:46:33;;;;;;;1.30;0.20;;;;;;;0.99;61.41;98949.80;1717410;82;21585;-63
2021/03/08 07:49:04;;;;;;;0.40;0.20;;;;;;;1.05;61.36;98953.17;1714800;81;21217;-64
2021/03/08 07:51:33;;;;;;;0.80;0.20;;;;;;;1.14;61.04;98969.33;1717128;81;21754;-58
2021/03/08 07:54:06;;;;;;;1.07;0.20;;;;;;;1.20;60.60;98969.17;1713338;81;21369;-63
2021/03/08 07:56:34;;;;;;;0.40;0.10;;;;;;;1.22;60.54;98963.84;1715888;81;21225;-63
2021/03/08 07:59:02;;;;;;;0.73;0.20;;;;;;;1.22;59.95;98966.05;1723585;81;21198;-63
2021/03/08 08:01:29;;;;;;;0.27;0.10;;;;;;;1.22;59.80;98967.81;1715443;82;21259;-59
2021/03/08 08:03:57;;;;;;;0.37;0.20;;;;;;;1.21;59.37;98966.07;1714352;82;21369;-61
2021/03/08 08:06:26;;;;;;;0.47;0.20;;;;;;;1.17;59.03;98965.29;1713893;81;21885;-64
2021/03/08 08:08:56;;;;;;;1.27;0.20;;;;;;;1.17;59.41;98961.31;1714851;81;21661;-63
2021/03/08 08:11:28;;;;;;;0.50;0.10;;;;;;;1.20;59.10;98953.72;1715643;82;21392;-61
2021/03/08 08:14:00;;;;;;;0.70;0.20;;;;;;;1.24;58.75;98956.73;1710854;82;21182;-59
2021/03/08 08:16:33;;;;;;;0.47;0.20;;;;;;;1.27;58.81;98952.24;1716627;81;21178;-62
2021/03/08 08:19:07;;;;;;;0.57;0.17;;;;;;;1.33;58.40;98951.22;1713957;81;22053;-61
2021/03/08 08:21:37;;;;;;;1.13;0.23;;;;;;;1.33;57.13;98952.54;1710785;81;21542;-65
2021/03/08 08:24:07;;;;;;;1.77;0.30;;;;;;;1.25;57.29;98963.33;1713974;81;21790;-61
2021/03/08 08:26:35;;;;;;;0.60;0.20;;;;;;;1.24;57.85;98962.03;1712640;81;21600;-60
2021/03/08 08:29:02;;;;;;;0.50;0.20;;;;;;;1.29;57.54;98957.03;1710424;81;21241;-59
2021/03/08 08:31:58;;;;;;;0.77;0.33;;;;;;;1.29;56.75;98955.70;1715476;81;21676;-64
2021/03/08 08:34:49;;;;;;;0.27;0.13;;;;;;;1.23;56.86;98961.61;1717848;81;21139;-64
2021/03/08 08:37:38;;;;;;;1.17;0.23;;;;;;;1.22;55.72;98967.36;1719987;82;21167;-63
2021/03/08 08:40:14;;;;;;;0.20;0.10;;;;;;;1.20;55.37;98970.50;1742850;80;21208;-65
2021/03/08 08:42:41;;;;;;;0.30;0.10;;;;;;;1.16;54.67;98979.90;1744581;80;21491;-64
2021/03/08 08:45:28;;;;;;;0.43;0.10;;;;;;;1.16;55.64;98974.14;1744041;80;21652;-62
2021/03/08 08:48:05;;;;;;;0.23;0.10;;;;;;;1.22;55.73;98973.99;1747372;80;21128;-64
2021/03/08 08:50:53;;;;;;;0.30;0.20;;;;;;;1.31;54.84;98965.83;1743860;80;21200;-64
2021/03/08 08:55:41;;;;;;;0.73;0.03;;;;;;;1.39;54.64;98962.54;1820395;75;26874;-60
2021/03/08 08:58:24;;;;;;;1.37;0.67;;;;;;;1.40;53.31;98967.39;1796086;77;22285;-63
2021/03/08 09:01:17;;;;;;;2.10;0.10;;;;;;;1.47;52.67;98968.98;1788170;77;21494;-58
2021/03/08 09:03:59;;;;;;;0.33;0.10;;;;;;;1.58;52.66;98973.58;1787267;77;21206;-66
2021/03/08 09:06:55;;;;;;;0.77;0.10;;;;;;;1.68;51.52;98963.63;1789607;77;21218;-58
2021/03/08 09:09:36;;;;;;;0.43;0.10;;;;;;;1.77;50.99;98968.70;1795688;77;20953;-62
2021/03/08 09:12:07;;;;;;;0.10;0.10;;;;;;;1.90;50.55;98967.00;1789899;77;20920;-64
2021/03/08 09:14:51;;;;;;;0.27;0.00;;;;;;;2.03;48.89;98979.52;1800080;77;21313;-64
2021/03/08 09:17:31;;;;;;;0.75;0.10;;;;;;;2.08;47.83;98966.98;1796122;77;20945;-61
2021/03/08 09:20:05;;;;;;;0.20;0.10;;;;;;;2.10;48.76;98963.83;1787190;77;20973;-62
2021/03/08 09:22:42;;;;;;;0.10;0.00;;;;;;;2.17;47.43;98960.09;1791058;77;21428;-64
2021/03/08 09:25:15;;;;;;;0.37;0.10;;;;;;;2.21;47.80;98960.41;1793301;77;21107;-63
2021/03/08 09:27:53;;;;;;;1.13;0.20;;;;;;;2.28;47.86;98966.45;1798218;77;21224;-64
2021/03/08 09:30:21;;;;;;;0.20;0.10;;;;;;;2.24;46.58;98974.95;1762764;79;21130;-62
2021/03/08 09:32:54;;;;;;;0.20;0.10;;;;;;;2.17;46.69;98983.12;1744489;79;21102;-62
2021/03/08 09:35:24;;;;;;;1.43;0.20;;;;;;;2.20;46.57;98972.43;1736047;80;21197;-66
2021/03/08 09:37:56;;;;;;;0.40;0.10;;;;;;;2.15;46.78;98983.16;1736829;79;21190;-62
2021/03/08 09:40:27;;;;;;;0.87;0.00;;;;;;;2.15;46.47;98993.77;1793011;77;21355;-61
2021/03/08 09:42:54;;;;;;;0.20;0.10;;;;;;;2.14;45.65;98981.86;1779120;78;21530;-61
2021/03/08 09:45:33;;;;;;;0.20;0.00;;;;;;;2.17;45.87;98993.28;1775296;79;21522;-62
2021/03/08 09:48:02;;;;;;;0.30;0.10;;;;;;;2.25;45.92;98982.45;1778234;79;21166;-65
2021/03/08 09:50:36;;;;;;;0.40;0.10;;;;;;;2.31;45.81;98972.11;1782070;79;21890;-60
2021/03/08 09:53:03;;;;;;;0.50;0.10;;;;;;;2.41;45.64;98978.92;1774910;79;21480;-62
2021/03/08 09:55:34;;;;;;;0.73;0.10;;;;;;;2.49;44.48;98970.28;1773302;79;21206;-65
2021/03/08 09:58:18;;;;;;;2.10;0.20;;;;;;;2.56;44.99;98977.16;1771014;79;21178;-64
2021/03/08 10:00:48;;;;;;;0.20;0.10;;;;;;;2.69;45.03;98973.70;1772272;79;21186;-63
2021/03/08 10:03:15;;;;;;;0.50;0.20;;;;;;;2.84;43.60;98978.57;1779426;79;21095;-61
2021/03/08 10:05:50;;;;;;;0.90;0.10;;;;;;;2.87;43.92;98971.84;1776059;79;21209;-64
2021/03/08 10:08:18;;;;;;;0.55;0.10;;;;;;;2.95;42.92;98973.36;1772241;79;21135;-64
2021/03/08 10:10:52;;;;;;;0.40;0.00;;;;;;;2.93;42.70;98971.66;1773796;79;21130;-64
2021/03/08 10:13:21;;;;;;;0.43;0.10;;;;;;;2.86;40.58;98972.30;1778182;79;21301;-64
2021/03/08 10:15:53;;;;;;;0.27;0.17;;;;;;;2.73;40.60;98977.55;1772706;79;21216;-63
2021/03/08 10:18:28;;;;;;;0.30;0.10;;;;;;;2.63;40.89;98976.97;1770214;79;21682;-60
2021/03/08 10:21:00;;;;;;;0.43;0.10;;;;;;;2.54;40.53;98989.64;1769469;79;21187;-65
2021/03/08 10:23:31;;;;;;;0.30;0.10;;;;;;;2.39;41.10;98982.06;1768864;79;21111;-63
2021/03/08 10:26:18;;;;;;;0.10;0.10;;;;;;;2.29;41.84;98985.45;1770770;79;21222;-64
2021/03/08 10:28:51;;;;;;;0.47;0.10;;;;;;;2.32;41.04;98981.38;1772219;79;21056;-66
2021/03/08 10:31:26;;;;;;;0.97;0.10;;;;;;;2.34;40.47;98974.70;1770485;79;21378;-64
2021/03/08 10:34:03;;;;;;;0.30;0.10;;;;;;;2.33;40.89;98980.91;1766337;79;21205;-64
2021/03/08 10:36:35;;;;;;;0.37;0.10;;;;;;;2.42;41.45;98969.59;1771712;79;21163;-64
2021/03/08 10:39:06;;;;;;;0.10;0.10;;;;;;;2.51;40.29;98976.43;1773804;79;21537;-60
2021/03/08 10:41:35;;;;;;;0.23;0.10;;;;;;;2.58;39.66;98988.16;1770644;79;21166;-65
2021/03/08 10:44:03;;;;;;;2.53;0.10;;;;;;;2.58;39.59;98969.56;1768650;79;21357;-64
2021/03/08 10:46:36;;;;;;;0.20;0.10;;;;;;;2.62;39.42;98988.96;1772353;79;21223;-63
2021/03/08 10:49:08;;;;;;;0.10;0.10;;;;;;;2.63;38.77;98981.41;1726826;81;21212;-62
2021/03/08 10:51:40;;;;;;;0.17;0.10;;;;;;;2.61;40.02;98981.90;1775096;79;21533;-61
2021/03/08 10:54:14;;;;;;;0.40;0.17;;;;;;;2.64;40.21;98974.70;1774472;79;21225;-60
2021/03/08 10:56:43;;;;;;;0.37;0.13;;;;;;;2.69;40.60;98975.91;1773982;79;21187;-66
2021/03/08 10:59:29;;;;;;;0.10;0.00;;;;;;;2.68;40.41;98977.27;1782026;79;21587;-62
2021/03/08 11:02:09;;;;;;;1.73;0.10;;;;;;;2.68;39.80;98975.48;1775396;79;21568;-61
2021/03/08 11:04:37;;;;;;;0.20;0.10;;;;;;;2.71;39.43;98970.55;1777628;79;21175;-64
2021/03/08 11:07:04;;;;;;;0.10;0.00;;;;;;;2.71;40.10;98967.90;1774103;79;21183;-65
2021/03/08 11:09:36;;;;;;;0.30;0.10;;;;;;;2.76;39.99;98969.95;1782099;79;21584;-61
2021/03/08 11:12:05;;;;;;;0.30;0.10;;;;;;;2.79;39.04;98985.81;1781509;79;21181;-62
2021/03/08 11:14:55;;;;;;;0.20;0.10;;;;;;;2.80;39.67;98972.49;1779244;79;21141;-63
2021/03/08 11:17:40;;;;;;;0.50;0.20;;;;;;;2.87;39.65;98971.39;1774276;79;21778;-62
2021/03/08 11:20:13;;;;;;;0.60;0.10;;;;;;;2.92;39.32;98968.58;1779476;79;21465;-59
2021/03/08 11:23:03;;;;;;;0.53;0.10;;;;;;;2.89;39.50;98972.68;1776783;79;22303;-64
2021/03/08 11:25:40;;;;;;;0.40;0.20;;;;;;;2.90;39.44;98967.29;1777698;79;21191;-65
2021/03/08 11:28:14;;;;;;;0.30;0.10;;;;;;;2.92;39.46;98960.61;1767839;79;21170;-63
2021/03/08 11:30:48;;;;;;;0.20;0.10;;;;;;;2.97;40.13;98960.03;1780153;79;27751;-62
2021/03/08 11:33:16;;;;;;;0.23;0.10;;;;;;;3.05;39.97;98956.67;1778044;79;21217;-60
2021/03/08 11:35:52;;;;;;;0.23;0.10;;;;;;;3.09;39.79;98962.30;1775068;79;21758;-64
2021/03/08 11:38:24;;;;;;;1.00;0.20;;;;;;;3.08;39.91;98960.55;1778061;79;21524;-64
2021/03/08 11:40:52;;;;;;;1.57;0.27;;;;;;;3.09;39.90;98958.30;1777172;79;20964;-64
2021/03/08 11:43:22;;;;;;;0.30;0.10;;;;;;;3.11;39.15;98951.16;1779553;79;21102;-60
2021/03/08 11:45:50;;;;;;;0.20;0.10;;;;;;;3.08;39.38;98959.67;1753347;79;21104;-62
2021/03/08 11:48:22;;;;;;;0.43;0.10;;;;;;;3.03;39.56;98967.34;1776790;79;22751;-61
2021/03/08 11:50:50;;;;;;;0.40;0.17;;;;;;;3.00;39.98;98965.23;1775214;79;20953;-63
2021/03/08 11:53:18;;;;;;;0.47;0.10;;;;;;;3.02;40.25;98972.25;1779308;79;21135;-64
2021/03/08 11:55:46;;;;;;;0.57;0.10;;;;;;;3.02;40.01;98979.36;1775237;79;21394;-65
2021/03/08 11:58:14;;;;;;;1.73;0.10;;;;;;;2.94;39.91;98976.93;1775012;79;21182;-61
2021/03/08 12:00:41;;;;;;;0.17;0.10;;;;;;;2.84;40.22;98973.25;1777636;79;22275;-63
2021/03/08 12:03:11;;;;;;;0.43;0.20;;;;;;;2.81;40.34;98978.64;1776748;79;21145;-65
2021/03/08 12:05:38;;;;;;;0.27;0.10;;;;;;;2.79;40.51;98976.52;1778688;79;21114;-62
2021/03/08 12:08:07;;;;;;;0.47;0.20;;;;;;;2.78;40.35;98976.97;1772489;79;21122;-62
2021/03/08 12:10:36;;;;;;;0.80;0.20;;;;;;;2.70;39.62;98978.98;1775479;79;21109;-65